createdAt,value
2023-06-22T00:00:25.532Z,24.77
2023-06-22T00:02:57.294Z,24.69
2023-06-22T00:05:28.922Z,24.73
2023-06-22T00:08:05.962Z,24.66
2023-06-22T00:10:37.716Z,24.56
2023-06-22T00:13:10.446Z,24.51
2023-06-22T00:15:43.507Z,24.68
2023-06-22T00:18:15.180Z,24.63
2023-06-22T00:20:46.918Z,24.28
2023-06-22T00:23:19.001Z,24.10
2023-06-22T00:25:50.780Z,23.98
2023-06-22T00:28:22.607Z,24.07
2023-06-22T00:30:54.458Z,23.91
2023-06-22T00:33:26.112Z,23.92
2023-06-22T00:35:57.721Z,25.29
2023-06-22T00:38:31.807Z,25.15
2023-06-22T00:41:03.428Z,25.36
2023-06-22T00:43:35.084Z,25.34
2023-06-22T00:46:06.749Z,25.27
2023-06-22T00:48:38.474Z,25.46
2023-06-22T00:51:11.523Z,25.43
2023-06-22T00:53:44.255Z,24.06
2023-06-22T00:56:15.906Z,23.84
2023-06-22T00:58:48.472Z,23.65
2023-06-22T01:01:24.509Z,23.64
2023-06-22T01:06:41.683Z,23.57
2023-06-22T01:09:23.887Z,23.34
2023-06-22T01:12:03.155Z,23.57
2023-06-22T01:14:53.288Z,23.50
2023-06-22T01:17:27.862Z,23.42
2023-06-22T01:20:00.551Z,23.42
2023-06-22T01:22:43.446Z,23.26
2023-06-22T01:25:22.103Z,23.24
2023-06-22T01:28:32.742Z,23.40
2023-06-22T01:31:06.515Z,23.08
2023-06-22T01:33:42.728Z,23.21
2023-06-22T01:36:17.509Z,23.27
2023-06-22T01:38:50.157Z,23.11
2023-06-22T01:41:23.247Z,23.34
2023-06-22T01:43:56.218Z,23.39
2023-06-22T01:46:30.388Z,23.21
2023-06-22T01:49:04.063Z,23.15
2023-06-22T01:51:35.775Z,23.03
2023-06-22T01:54:09.190Z,23.27
2023-06-22T01:56:40.960Z,23.31
2023-06-22T01:59:21.795Z,23.14
2023-06-22T02:02:03.273Z,23.20
2023-06-22T02:04:43.772Z,23.12
2023-06-22T02:07:18.968Z,23.64
2023-06-22T02:09:53.571Z,24.01
2023-06-22T02:12:29.726Z,23.93
2023-06-22T02:15:02.034Z,24.00
2023-06-22T02:17:34.650Z,24.12
2023-06-22T02:20:09.100Z,24.13
2023-06-22T02:22:40.884Z,23.02
2023-06-22T02:25:15.916Z,22.87
2023-06-22T02:27:47.768Z,22.74
2023-06-22T02:30:19.348Z,22.72
2023-06-22T02:32:59.595Z,22.54
2023-06-22T02:35:36.670Z,22.55
2023-06-22T02:38:09.277Z,22.41
2023-06-22T02:40:40.887Z,22.36
2023-06-22T02:43:20.472Z,22.19
2023-06-22T02:45:54.231Z,22.16
2023-06-22T02:48:26.081Z,22.13
2023-06-22T02:50:57.693Z,22.07
2023-06-22T02:53:29.324Z,21.99
2023-06-22T02:56:06.568Z,22.15
2023-06-22T02:58:40.448Z,23.13
2023-06-22T03:01:14.180Z,23.12
2023-06-22T03:03:45.973Z,22.08
2023-06-22T03:06:19.903Z,22.00
2023-06-22T03:08:51.973Z,21.83
2023-06-22T03:11:23.588Z,21.85
2023-06-22T03:13:55.212Z,21.66
2023-06-22T03:16:26.970Z,21.63
2023-06-22T03:18:58.595Z,22.23
2023-06-22T03:21:30.599Z,23.22
2023-06-22T03:24:02.367Z,22.04
2023-06-22T03:26:34.544Z,21.79
2023-06-22T03:29:06.184Z,21.70
2023-06-22T03:31:37.980Z,21.66
2023-06-22T03:34:12.083Z,21.63
2023-06-22T03:36:46.372Z,22.74
2023-06-22T03:39:18.017Z,23.55
2023-06-22T03:41:49.603Z,22.82
2023-06-22T03:44:23.409Z,22.24
2023-06-22T03:46:55.100Z,22.14
2023-06-22T03:49:26.694Z,22.21
2023-06-22T03:51:58.528Z,23.72
2023-06-22T03:54:30.930Z,23.82
2023-06-22T03:57:02.688Z,24.20
2023-06-22T03:59:35.623Z,24.23
2023-06-22T04:02:07.858Z,24.38
2023-06-22T04:04:40.670Z,24.20
2023-06-22T04:07:14.540Z,24.35
2023-06-22T04:09:46.610Z,24.12
2023-06-22T04:12:18.500Z,24.36
2023-06-22T04:14:50.698Z,24.38
2023-06-22T04:17:24.625Z,24.20
2023-06-22T04:19:56.274Z,24.10
2023-06-22T04:22:27.870Z,24.23
2023-06-22T04:24:59.485Z,24.01
2023-06-22T04:27:31.130Z,24.26
2023-06-22T04:30:02.961Z,24.44
2023-06-22T04:32:37.314Z,24.48
2023-06-22T04:35:09.800Z,24.54
2023-06-22T04:37:41.524Z,24.90
2023-06-22T04:40:15.653Z,24.96
2023-06-22T04:42:53.313Z,24.86
2023-06-22T04:45:25.050Z,25.01
2023-06-22T04:47:56.830Z,24.81
2023-06-22T04:50:28.781Z,24.86
2023-06-22T04:53:00.631Z,24.75
2023-06-22T04:55:35.370Z,24.93
2023-06-22T04:58:06.921Z,24.93
2023-06-22T05:00:41.457Z,24.79
2023-06-22T05:03:19.766Z,24.70
2023-06-22T05:05:53.727Z,25.11
2023-06-22T05:08:27.925Z,25.31
2023-06-22T05:11:05.657Z,25.44
2023-06-22T05:13:37.990Z,25.54
2023-06-22T05:16:09.856Z,25.50
2023-06-22T05:18:42.972Z,25.09
2023-06-22T05:21:14.695Z,25.49
2023-06-22T05:23:46.280Z,25.79
2023-06-22T05:26:18.917Z,25.75
2023-06-22T05:28:51.306Z,25.76
2023-06-22T05:31:25.920Z,26.10
2023-06-22T05:33:57.823Z,26.12
2023-06-22T05:36:32.401Z,26.27
2023-06-22T05:39:14.724Z,26.29
2023-06-22T05:41:47.292Z,26.42
2023-06-22T05:44:19.779Z,26.51
2023-06-22T05:46:51.471Z,26.43
2023-06-22T05:49:24.380Z,26.02
2023-06-22T05:51:57.079Z,25.95
2023-06-22T05:54:29.382Z,26.45
2023-06-22T05:57:00.958Z,26.65
2023-06-22T05:59:32.824Z,26.53
2023-06-22T06:02:06.248Z,27.02
2023-06-22T06:04:38.029Z,27.19
2023-06-22T06:07:09.674Z,27.44
2023-06-22T06:09:41.283Z,27.37
2023-06-22T06:12:13.024Z,27.56
2023-06-22T06:14:44.727Z,27.78
2023-06-22T06:17:16.335Z,28.10
2023-06-22T06:19:47.921Z,28.18
2023-06-22T06:22:20.213Z,27.86
2023-06-22T06:24:51.897Z,27.73
2023-06-22T06:27:32.772Z,28.23
2023-06-22T06:30:05.270Z,28.37
2023-06-22T06:32:36.926Z,28.71
2023-06-22T06:35:10.337Z,29.09
2023-06-22T06:37:45.494Z,29.31
2023-06-22T06:40:19.104Z,29.32
2023-06-22T06:42:51.273Z,29.43
2023-06-22T06:45:26.692Z,29.78
2023-06-22T06:47:58.393Z,28.49
2023-06-22T06:50:30.397Z,29.41
2023-06-22T06:53:02.459Z,28.84
2023-06-22T06:55:34.236Z,29.01
2023-06-22T06:58:08.730Z,29.58
2023-06-22T07:00:40.659Z,30.20
2023-06-22T07:03:12.329Z,30.30
2023-06-22T07:05:43.907Z,30.26
2023-06-22T07:08:15.577Z,28.93
2023-06-22T07:10:47.631Z,29.07
2023-06-22T07:13:19.382Z,29.93
2023-06-22T07:15:50.971Z,30.66
2023-06-22T07:18:22.628Z,31.54
2023-06-22T07:20:54.402Z,31.87
2023-06-22T07:23:26.345Z,34.27
2023-06-22T07:25:58.380Z,36.35
2023-06-22T07:28:38.083Z,36.88
2023-06-22T07:31:09.741Z,38.43
2023-06-22T07:33:41.404Z,38.89
2023-06-22T07:36:13.439Z,38.00
2023-06-22T07:38:45.540Z,39.47
2023-06-22T07:41:17.223Z,38.26
2023-06-22T07:43:49.076Z,34.33
2023-06-22T07:46:20.768Z,35.58
2023-06-22T07:48:55.573Z,35.85
2023-06-22T07:51:28.420Z,35.45
2023-06-22T07:54:00.191Z,36.98
2023-06-22T07:56:31.881Z,36.83
2023-06-22T07:59:04.878Z,34.42
2023-06-22T08:01:36.784Z,32.40
2023-06-22T08:04:08.675Z,34.19
2023-06-22T08:06:40.476Z,36.12
2023-06-22T08:09:12.428Z,34.85
2023-06-22T08:11:46.410Z,37.24
2023-06-22T08:14:20.107Z,34.42
2023-06-22T08:16:51.911Z,33.46
2023-06-22T08:19:23.561Z,30.31
2023-06-22T08:21:57.312Z,30.75
2023-06-22T08:24:31.641Z,32.98
2023-06-22T08:27:03.317Z,31.75
2023-06-22T08:29:38.214Z,29.07
2023-06-22T08:32:11.075Z,28.98
2023-06-22T08:34:43.414Z,28.29
2023-06-22T08:37:15.076Z,29.13
2023-06-22T08:39:47.480Z,28.61
2023-06-22T08:42:19.128Z,28.81
2023-06-22T08:44:51.395Z,29.42
2023-06-22T08:47:24.236Z,29.37
2023-06-22T08:49:56.195Z,29.07
2023-06-22T08:52:27.888Z,31.59
2023-06-22T08:54:59.710Z,33.17
2023-06-22T08:57:31.707Z,32.26
2023-06-22T09:00:06.115Z,31.89
2023-06-22T09:02:37.920Z,31.35
2023-06-22T09:05:10.513Z,31.74
2023-06-22T09:07:42.840Z,32.74
2023-06-22T09:10:14.687Z,34.93
2023-06-22T09:12:46.301Z,35.42
2023-06-22T09:15:20.307Z,37.00
2023-06-22T09:17:52.061Z,33.57
2023-06-22T09:20:23.834Z,35.31
2023-06-22T09:22:55.388Z,35.13
2023-06-22T09:25:27.343Z,33.99
2023-06-22T09:27:59.295Z,35.34
2023-06-22T09:30:31.138Z,34.68
2023-06-22T09:33:03.546Z,35.52
2023-06-22T09:35:35.471Z,33.91
2023-06-22T09:38:07.166Z,34.44
2023-06-22T09:40:41.136Z,35.61
2023-06-22T09:43:13.307Z,35.42
2023-06-22T09:45:44.917Z,34.49
2023-06-22T09:48:19.245Z,36.67
2023-06-22T09:50:51.111Z,38.27
2023-06-22T09:53:22.735Z,39.16
2023-06-22T09:55:54.384Z,36.79
2023-06-22T09:58:26.007Z,36.83
2023-06-22T10:00:57.693Z,35.39
2023-06-22T10:03:29.421Z,37.27
2023-06-22T10:06:01.259Z,37.95
2023-06-22T10:08:32.927Z,38.11
2023-06-22T10:11:05.206Z,37.54
2023-06-22T10:13:36.874Z,36.78
2023-06-22T10:16:10.871Z,36.95
2023-06-22T10:18:42.382Z,37.34
2023-06-22T10:21:14.842Z,37.75
2023-06-22T10:23:46.459Z,36.16
2023-06-22T10:26:18.134Z,36.30
2023-06-22T10:31:35.715Z,37.40
2023-06-22T10:34:09.386Z,38.64
2023-06-22T10:36:41.067Z,38.95
2023-06-22T10:39:12.696Z,36.69
2023-06-22T10:41:44.357Z,36.74
2023-06-22T10:44:16.069Z,34.45
2023-06-22T10:46:47.739Z,36.12
2023-06-22T10:49:19.602Z,37.46
2023-06-22T10:51:51.294Z,37.69
2023-06-22T10:54:22.901Z,38.69
2023-06-22T10:56:54.451Z,40.06
2023-06-22T10:59:27.010Z,39.17
2023-06-22T11:02:04.935Z,37.91
2023-06-22T11:04:36.862Z,39.25
2023-06-22T11:07:08.547Z,38.07
2023-06-22T11:09:47.745Z,38.47
2023-06-22T11:12:19.365Z,38.21
2023-06-22T11:14:54.051Z,39.93
2023-06-22T11:17:25.858Z,40.24
2023-06-22T11:19:57.590Z,40.42
2023-06-22T11:22:29.209Z,38.30
2023-06-22T11:25:00.792Z,38.49
2023-06-22T11:27:32.675Z,38.18
2023-06-22T11:30:06.655Z,37.76
2023-06-22T11:32:41.159Z,37.39
2023-06-22T11:35:13.016Z,37.47
2023-06-22T11:37:46.078Z,37.44
2023-06-22T11:40:18.811Z,35.91
2023-06-22T11:42:50.400Z,36.13
2023-06-22T11:45:22.171Z,36.63
2023-06-22T11:47:54.025Z,37.96
2023-06-22T11:50:26.052Z,38.05
2023-06-22T11:52:57.731Z,37.78
2023-06-22T11:55:29.474Z,37.82
2023-06-22T11:58:04.658Z,37.49
2023-06-22T12:00:49.494Z,37.25
2023-06-22T12:03:23.122Z,36.38
2023-06-22T12:05:55.063Z,35.78
2023-06-22T12:08:26.896Z,35.79
2023-06-22T12:10:58.567Z,35.51
2023-06-22T12:13:30.274Z,36.61
2023-06-22T12:16:04.550Z,36.86
2023-06-22T12:18:36.201Z,37.22
2023-06-22T12:21:10.975Z,37.55
2023-06-22T12:23:44.729Z,36.75
2023-06-22T12:26:16.882Z,36.76
2023-06-22T12:28:49.574Z,36.23
2023-06-22T12:31:21.375Z,35.15
2023-06-22T12:33:53.076Z,35.55
2023-06-22T12:36:25.413Z,34.38
2023-06-22T12:38:56.996Z,34.65
2023-06-22T12:41:31.495Z,35.08
2023-06-22T12:44:03.572Z,34.98
2023-06-22T12:46:38.747Z,35.80
2023-06-22T12:49:10.493Z,34.44
2023-06-22T12:51:43.570Z,35.28
2023-06-22T12:54:15.208Z,35.06
2023-06-22T12:56:46.833Z,36.03
2023-06-22T12:59:18.904Z,36.19
2023-06-22T13:01:50.551Z,35.95
2023-06-22T13:04:22.431Z,36.54
2023-06-22T13:06:54.338Z,36.25
2023-06-22T13:09:26.924Z,36.28
2023-06-22T13:12:00.980Z,35.70
2023-06-22T13:14:32.547Z,36.57
2023-06-22T13:17:04.403Z,37.82
2023-06-22T13:19:36.126Z,38.38
2023-06-22T13:22:31.892Z,37.53
2023-06-22T13:25:11.208Z,37.43
2023-06-22T13:27:43.173Z,36.36
2023-06-22T13:30:15.695Z,38.06
2023-06-22T13:32:47.363Z,37.11
2023-06-22T13:35:19.616Z,35.49
2023-06-22T13:37:51.219Z,36.95
2023-06-22T13:40:22.871Z,37.61
2023-06-22T13:42:56.380Z,36.92
2023-06-22T13:45:31.551Z,36.68
2023-06-22T13:48:03.421Z,37.56
2023-06-22T13:50:35.150Z,37.66
2023-06-22T13:53:09.872Z,37.71
2023-06-22T13:55:41.606Z,38.26
2023-06-22T13:58:13.319Z,36.52
2023-06-22T14:00:46.030Z,35.26
2023-06-22T14:03:17.870Z,36.97
2023-06-22T14:05:49.843Z,37.41
2023-06-22T14:08:40.571Z,37.81
2023-06-22T14:11:14.138Z,35.60
2023-06-22T14:13:45.851Z,35.27
2023-06-22T14:16:17.677Z,36.28
2023-06-22T14:18:49.364Z,36.44
2023-06-22T14:21:21.133Z,36.75
2023-06-22T14:23:52.829Z,36.11
2023-06-22T14:26:24.411Z,35.63
2023-06-22T14:28:57.821Z,36.19
2023-06-22T14:31:29.638Z,35.94
2023-06-22T14:34:04.659Z,34.58
2023-06-22T14:36:36.356Z,34.66
2023-06-22T14:39:08.070Z,35.40
2023-06-22T14:41:39.797Z,36.18
2023-06-22T14:44:11.447Z,36.19
2023-06-22T14:46:43.074Z,34.50
2023-06-22T14:49:14.638Z,35.33
2023-06-22T14:51:46.291Z,35.69
2023-06-22T14:54:18.009Z,36.32
2023-06-22T14:56:49.838Z,35.97
2023-06-22T14:59:21.464Z,36.05
2023-06-22T15:01:53.347Z,35.39
2023-06-22T15:04:25.153Z,36.20
2023-06-22T15:06:56.782Z,36.63
2023-06-22T15:09:28.490Z,36.91
2023-06-22T15:12:02.364Z,36.77
2023-06-22T15:14:34.025Z,36.64
2023-06-22T15:17:06.881Z,36.55
2023-06-22T15:19:41.522Z,35.93
2023-06-22T15:22:13.919Z,37.13
2023-06-22T15:24:46.742Z,37.62
2023-06-22T15:27:18.436Z,36.53
2023-06-22T15:29:50.106Z,37.22
2023-06-22T15:32:21.788Z,37.12
2023-06-22T15:34:55.133Z,36.63
2023-06-22T15:37:32.612Z,36.35
2023-06-22T15:40:05.525Z,36.45
2023-06-22T15:42:37.157Z,36.68
2023-06-22T15:45:09.627Z,35.34
2023-06-22T15:47:41.269Z,35.87
2023-06-22T15:50:12.970Z,35.84
2023-06-22T15:52:51.233Z,35.80
2023-06-22T15:55:23.330Z,36.52
2023-06-22T15:57:55.040Z,35.93
2023-06-22T16:00:27.978Z,35.47
2023-06-22T16:02:59.877Z,35.21
2023-06-22T16:05:31.828Z,36.07
2023-06-22T16:08:03.503Z,36.19
2023-06-22T16:10:35.148Z,35.62
2023-06-22T16:13:06.745Z,34.82
2023-06-22T16:15:38.393Z,34.83
2023-06-22T16:18:10.055Z,35.45
2023-06-22T16:20:41.807Z,34.98
2023-06-22T16:23:15.720Z,34.45
2023-06-22T16:25:47.659Z,34.08
2023-06-22T16:28:19.262Z,34.40
2023-06-22T16:30:52.643Z,34.27
2023-06-22T16:33:28.175Z,33.12
2023-06-22T16:35:59.924Z,32.68
2023-06-22T16:38:34.920Z,32.93
2023-06-22T16:41:08.256Z,32.20
2023-06-22T16:43:42.965Z,32.73
2023-06-22T16:46:14.637Z,32.76
2023-06-22T16:48:55.061Z,33.33
2023-06-22T16:51:26.756Z,32.81
2023-06-22T16:53:58.390Z,32.77
2023-06-22T16:56:30.261Z,32.86
2023-06-22T16:59:07.580Z,32.43
2023-06-22T17:01:52.877Z,31.74
2023-06-22T17:04:34.897Z,31.83
2023-06-22T17:07:16.467Z,31.71
2023-06-22T17:09:50.892Z,31.28
2023-06-22T17:12:25.235Z,31.20
2023-06-22T17:14:58.984Z,30.84
2023-06-22T17:17:31.559Z,30.47
2023-06-22T17:20:04.179Z,29.63
2023-06-22T17:22:39.654Z,29.24
2023-06-22T17:25:11.522Z,28.61
2023-06-22T17:27:43.173Z,28.24
2023-06-22T17:30:18.685Z,28.45
2023-06-22T17:32:50.851Z,27.96
2023-06-22T17:35:25.177Z,27.14
2023-06-22T17:38:00.801Z,27.15
2023-06-22T17:40:32.693Z,27.21
2023-06-22T17:43:09.442Z,26.96
2023-06-22T17:45:43.503Z,27.04
2023-06-22T17:48:15.769Z,26.82
2023-06-22T17:50:47.543Z,26.55
2023-06-22T17:53:19.281Z,25.88
2023-06-22T17:55:53.459Z,26.18
2023-06-22T17:58:27.366Z,25.94
2023-06-22T18:00:59.037Z,26.05
2023-06-22T18:03:31.096Z,25.87
2023-06-22T18:06:02.792Z,25.75
2023-06-22T18:08:34.734Z,25.11
2023-06-22T18:11:09.065Z,24.55
2023-06-22T18:13:41.963Z,24.36
2023-06-22T18:16:13.624Z,24.44
2023-06-22T18:18:48.078Z,24.17
2023-06-22T18:21:21.887Z,24.19
2023-06-22T18:23:54.988Z,24.18
2023-06-22T18:26:27.750Z,24.06
2023-06-22T18:28:59.871Z,24.08
2023-06-22T18:31:36.087Z,23.98
2023-06-22T18:34:11.826Z,24.16
2023-06-22T18:36:54.438Z,24.50
2023-06-22T18:39:27.340Z,24.61
2023-06-22T18:42:03.056Z,24.67
2023-06-22T18:44:41.844Z,24.85
2023-06-22T18:47:13.543Z,24.68
2023-06-22T18:49:45.084Z,24.68
2023-06-22T18:52:29.278Z,24.36
2023-06-22T18:55:04.233Z,24.49
2023-06-22T18:57:38.184Z,24.51
2023-06-22T19:00:11.307Z,24.50
2023-06-22T19:03:01.695Z,24.40
2023-06-22T19:05:43.739Z,24.50
2023-06-22T19:08:15.962Z,24.81
2023-06-22T19:10:47.740Z,25.06
2023-06-22T19:13:27.512Z,25.14
2023-06-22T19:16:13.982Z,24.68
2023-06-22T19:18:50.739Z,24.64
2023-06-22T19:21:24.369Z,24.25
2023-06-22T19:23:56.237Z,24.31
2023-06-22T19:26:28.581Z,24.63
2023-06-22T19:29:03.462Z,24.63
2023-06-22T19:31:35.868Z,24.58
2023-06-22T19:34:07.658Z,24.62
2023-06-22T19:36:39.497Z,24.85
2023-06-22T19:39:12.418Z,24.47
2023-06-22T19:41:47.167Z,24.36
2023-06-22T19:44:18.915Z,24.52
2023-06-22T19:46:53.903Z,24.35
2023-06-22T19:49:26.887Z,24.71
2023-06-22T19:52:08.192Z,24.77
2023-06-22T19:54:41.460Z,25.07
2023-06-22T19:57:13.332Z,24.70
2023-06-22T19:59:46.395Z,24.10
2023-06-22T20:02:18.206Z,24.43
2023-06-22T20:04:49.876Z,24.78
2023-06-22T20:07:21.522Z,24.08
2023-06-22T20:10:13.022Z,24.98
2023-06-22T20:12:52.824Z,24.73
2023-06-22T20:15:27.209Z,24.48
2023-06-22T20:18:09.877Z,24.76
2023-06-22T20:20:48.103Z,25.05
2023-06-22T20:23:22.948Z,25.01
2023-06-22T20:25:55.030Z,24.87
2023-06-22T20:28:27.406Z,24.93
2023-06-22T20:31:02.012Z,24.89
2023-06-22T20:33:34.296Z,24.92
2023-06-22T20:36:13.660Z,24.59
2023-06-22T20:38:46.940Z,24.46
2023-06-22T20:41:18.664Z,24.57
2023-06-22T20:43:55.287Z,24.60
2023-06-22T20:46:31.231Z,23.92
2023-06-22T20:49:04.062Z,23.81
2023-06-22T20:51:35.649Z,24.23
2023-06-22T20:54:07.325Z,24.34
2023-06-22T20:56:38.958Z,24.30
2023-06-22T20:59:12.786Z,24.45
2023-06-22T21:01:47.809Z,24.57
2023-06-22T21:04:19.657Z,24.25
2023-06-22T21:06:51.476Z,24.05
2023-06-22T21:09:23.171Z,23.69
2023-06-22T21:11:55.298Z,23.69
2023-06-22T21:14:27.175Z,23.44
2023-06-22T21:16:58.783Z,23.62
2023-06-22T21:19:30.412Z,23.61
2023-06-22T21:22:02.133Z,23.71
2023-06-22T21:24:33.771Z,23.35
2023-06-22T21:27:05.663Z,24.03
2023-06-22T21:29:37.324Z,24.01
2023-06-22T21:32:09.669Z,24.14
2023-06-22T21:34:41.252Z,23.83
2023-06-22T21:37:12.883Z,23.89
2023-06-22T21:39:47.562Z,23.61
2023-06-22T21:42:20.162Z,23.72
2023-06-22T21:44:51.821Z,23.52
2023-06-22T21:47:26.568Z,23.61
2023-06-22T21:49:59.705Z,23.26
2023-06-22T21:52:31.250Z,23.42
2023-06-22T21:55:03.037Z,23.08
2023-06-22T21:57:34.745Z,23.57
2023-06-22T22:00:12.164Z,23.43
2023-06-22T22:02:43.903Z,23.09
2023-06-22T22:05:15.632Z,22.70
2023-06-22T22:07:47.401Z,23.02
2023-06-22T22:10:22.101Z,22.43
2023-06-22T22:12:55.923Z,22.83
2023-06-22T22:15:27.570Z,23.12
2023-06-22T22:18:05.375Z,22.43
2023-06-22T22:20:37.130Z,21.90
2023-06-22T22:23:08.772Z,21.91
2023-06-22T22:25:42.463Z,21.53
2023-06-22T22:28:14.194Z,21.18
2023-06-22T22:30:45.890Z,20.75
2023-06-22T22:33:17.575Z,20.72
2023-06-22T22:35:49.332Z,20.74
2023-06-22T22:38:20.940Z,20.58
2023-06-22T22:40:52.517Z,20.50
2023-06-22T22:43:24.167Z,20.41
2023-06-22T22:45:55.768Z,20.70
2023-06-22T22:48:27.356Z,20.64
2023-06-22T22:51:04.800Z,20.80
2023-06-22T22:53:39.596Z,20.63
2023-06-22T22:56:11.698Z,20.90
2023-06-22T22:58:43.340Z,19.34
2023-06-22T23:01:14.907Z,19.26
2023-06-22T23:16:20.672Z,20.68
2023-06-22T23:18:52.457Z,21.28
2023-06-22T23:21:24.235Z,21.38
2023-06-22T23:23:56.507Z,21.35
2023-06-22T23:26:29.336Z,20.71
2023-06-22T23:29:03.907Z,20.67
2023-06-22T23:31:38.362Z,20.88
2023-06-22T23:34:11.519Z,20.93
2023-06-22T23:36:43.317Z,20.69
2023-06-22T23:39:16.506Z,20.91
2023-06-22T23:41:48.202Z,21.17
2023-06-22T23:44:19.939Z,21.18
2023-06-22T23:46:52.449Z,20.81
2023-06-22T23:49:24.178Z,20.44
2023-06-22T23:51:55.749Z,20.74
2023-06-22T23:54:27.472Z,20.83
2023-06-22T23:57:01.495Z,21.01
2023-06-22T23:59:33.988Z,20.97
